createdAt,value
2022-07-29T00:02:02.226Z,88.22
2022-07-29T00:05:14.689Z,88.45
2022-07-29T00:08:22.682Z,88.64
2022-07-29T00:11:30.280Z,88.35
2022-07-29T00:14:37.211Z,87.80
2022-07-29T00:17:45.011Z,88.14
2022-07-29T00:20:54.972Z,89.64
2022-07-29T00:24:03.478Z,89.63
2022-07-29T00:27:11.160Z,89.86
2022-07-29T00:30:19.921Z,89.47
2022-07-29T00:33:27.120Z,88.84
2022-07-29T00:36:35.821Z,88.52
2022-07-29T00:39:43.688Z,88.30
2022-07-29T00:42:53.875Z,88.84
2022-07-29T00:46:00.812Z,89.46
2022-07-29T00:49:10.490Z,89.74
2022-07-29T00:52:17.720Z,89.78
2022-07-29T00:55:25.018Z,89.37
2022-07-29T00:58:33.738Z,89.07
2022-07-29T01:01:41.658Z,89.41
2022-07-29T01:04:49.751Z,89.61
2022-07-29T01:07:59.008Z,89.55
2022-07-29T01:11:08.179Z,89.29
2022-07-29T01:14:18.989Z,89.30
2022-07-29T01:17:32.670Z,89.91
2022-07-29T01:21:02.866Z,90.09
2022-07-29T01:24:45.871Z,89.86
2022-07-29T01:28:06.421Z,89.89
2022-07-29T01:31:30.921Z,89.81
2022-07-29T01:34:58.649Z,90.06
2022-07-29T01:38:25.992Z,89.39
2022-07-29T01:41:36.993Z,90.06
2022-07-29T01:45:25.292Z,89.84
2022-07-29T01:48:46.718Z,90.43
2022-07-29T01:52:02.577Z,90.04
2022-07-29T01:55:18.362Z,90.66
2022-07-29T01:58:27.389Z,90.45
2022-07-29T02:01:37.134Z,90.35
2022-07-29T02:04:45.574Z,90.30
2022-07-29T02:07:55.379Z,90.19
2022-07-29T02:11:05.169Z,89.95
2022-07-29T02:14:14.925Z,90.33
2022-07-29T02:17:33.129Z,90.64
2022-07-29T02:20:43.108Z,90.33
2022-07-29T02:23:50.871Z,90.23
2022-07-29T02:27:03.658Z,90.11
2022-07-29T02:30:13.443Z,91.20
2022-07-29T02:33:22.698Z,91.08
2022-07-29T02:36:30.419Z,90.82
2022-07-29T02:39:39.570Z,91.90
2022-07-29T02:42:51.238Z,91.65
2022-07-29T02:45:59.201Z,91.43
2022-07-29T02:49:12.908Z,91.57
2022-07-29T02:52:44.700Z,91.34
2022-07-29T02:56:22.227Z,92.41
2022-07-29T02:59:37.891Z,91.91
2022-07-29T03:02:48.845Z,91.91
2022-07-29T03:06:01.287Z,91.83
2022-07-29T03:09:13.567Z,91.24
2022-07-29T03:12:21.810Z,91.96
2022-07-29T03:15:29.520Z,91.71
2022-07-29T03:18:38.840Z,91.17
2022-07-29T03:21:47.579Z,91.27
2022-07-29T03:24:57.692Z,90.68
2022-07-29T03:28:06.128Z,90.81
2022-07-29T03:31:13.827Z,91.49
2022-07-29T03:34:21.919Z,91.92
2022-07-29T03:37:33.931Z,92.15
2022-07-29T03:40:55.577Z,91.77
2022-07-29T03:44:03.746Z,91.45
2022-07-29T03:47:12.788Z,91.06
2022-07-29T03:50:22.888Z,91.52
2022-07-29T03:53:31.465Z,92.33
2022-07-29T03:56:44.793Z,92.47
2022-07-29T03:59:54.491Z,92.31
2022-07-29T04:03:02.689Z,92.68
2022-07-29T04:06:11.877Z,92.02
2022-07-29T04:09:19.887Z,91.34
2022-07-29T04:12:28.772Z,91.89
2022-07-29T04:15:39.379Z,92.09
2022-07-29T04:18:50.469Z,91.62
2022-07-29T04:22:00.357Z,91.50
2022-07-29T04:25:07.429Z,92.77
2022-07-29T04:28:23.472Z,92.97
2022-07-29T04:31:30.691Z,92.26
2022-07-29T04:34:36.743Z,92.12
2022-07-29T04:37:42.390Z,91.90
2022-07-29T04:40:49.790Z,91.41
2022-07-29T04:44:07.533Z,90.61
2022-07-29T04:47:15.188Z,89.93
2022-07-29T04:50:23.636Z,88.72
2022-07-29T04:53:31.082Z,88.18
2022-07-29T04:56:37.185Z,87.96
2022-07-29T04:59:43.665Z,86.74
2022-07-29T05:02:49.694Z,84.98
2022-07-29T05:05:55.708Z,83.97
2022-07-29T05:09:01.338Z,82.33
2022-07-29T05:12:07.656Z,80.99
2022-07-29T05:15:13.390Z,81.58
2022-07-29T05:18:19.505Z,81.44
2022-07-29T05:21:25.198Z,80.74
2022-07-29T05:24:31.077Z,79.17
2022-07-29T05:27:38.445Z,78.62
2022-07-29T05:30:46.022Z,78.22
2022-07-29T05:33:52.144Z,77.76
2022-07-29T05:36:58.078Z,75.62
2022-07-29T05:40:04.697Z,75.03
2022-07-29T05:43:10.818Z,74.91
2022-07-29T05:46:16.806Z,73.28
2022-07-29T05:49:27.375Z,73.01
2022-07-29T05:52:33.446Z,70.85
2022-07-29T05:55:39.408Z,71.62
2022-07-29T05:58:45.387Z,69.52
2022-07-29T06:01:51.690Z,69.31
2022-07-29T06:04:57.516Z,65.76
2022-07-29T06:08:03.970Z,63.50
2022-07-29T06:11:12.755Z,64.22
2022-07-29T06:14:19.334Z,63.09
2022-07-29T06:17:26.420Z,62.59
2022-07-29T06:20:33.326Z,61.51
2022-07-29T06:23:40.308Z,59.96
2022-07-29T06:26:46.136Z,60.82
2022-07-29T06:29:52.285Z,59.42
2022-07-29T06:32:58.138Z,59.91
2022-07-29T06:36:07.142Z,60.34
2022-07-29T06:39:13.851Z,59.40
2022-07-29T06:42:19.822Z,58.10
2022-07-29T06:45:26.022Z,57.80
2022-07-29T06:48:34.972Z,56.72
2022-07-29T06:51:40.921Z,56.58
2022-07-29T06:54:49.723Z,56.14
2022-07-29T06:57:55.635Z,54.55
2022-07-29T07:01:04.936Z,54.00
2022-07-29T07:04:11.452Z,53.46
2022-07-29T07:07:17.245Z,51.97
2022-07-29T07:10:24.582Z,52.19
2022-07-29T07:13:36.858Z,52.73
2022-07-29T07:16:43.719Z,52.73
2022-07-29T07:19:50.392Z,51.61
2022-07-29T07:22:56.999Z,51.87
2022-07-29T07:26:03.662Z,52.22
2022-07-29T07:29:09.736Z,52.03
2022-07-29T07:32:17.955Z,52.82
2022-07-29T07:35:24.473Z,51.64
2022-07-29T07:38:30.526Z,52.65
2022-07-29T07:41:36.894Z,51.55
2022-07-29T07:45:10.951Z,51.47
2022-07-29T07:48:11.776Z,52.31
2022-07-29T07:51:17.549Z,52.01
2022-07-29T07:54:23.889Z,49.70
2022-07-29T07:57:30.264Z,49.26
2022-07-29T08:00:36.077Z,49.70
2022-07-29T08:03:42.011Z,48.38
2022-07-29T08:06:47.885Z,45.75
2022-07-29T08:09:55.188Z,45.89
2022-07-29T08:13:01.169Z,44.73
2022-07-29T08:16:14.540Z,46.69
2022-07-29T08:19:20.437Z,44.52
2022-07-29T08:22:26.948Z,45.03
2022-07-29T08:25:33.085Z,42.96
2022-07-29T08:28:47.635Z,43.20
2022-07-29T08:31:54.081Z,43.79
2022-07-29T08:35:00.162Z,44.51
2022-07-29T08:38:05.923Z,42.22
2022-07-29T08:41:12.294Z,43.98
2022-07-29T08:44:25.313Z,41.60
2022-07-29T08:47:48.838Z,42.29
2022-07-29T08:50:58.317Z,41.91
2022-07-29T08:54:05.732Z,41.23
2022-07-29T08:57:15.359Z,39.91
2022-07-29T09:00:24.976Z,40.53
2022-07-29T09:03:33.450Z,41.07
2022-07-29T09:06:42.312Z,40.94
2022-07-29T09:09:49.160Z,40.66
2022-07-29T09:12:56.914Z,39.31
2022-07-29T09:16:08.930Z,36.98
2022-07-29T09:19:36.650Z,38.01
2022-07-29T09:22:43.662Z,34.91
2022-07-29T09:25:49.788Z,38.07
2022-07-29T09:28:56.535Z,37.60
2022-07-29T09:32:02.591Z,37.21
2022-07-29T09:35:19.913Z,37.37
2022-07-29T09:38:25.952Z,33.69
2022-07-29T09:41:32.470Z,35.43
2022-07-29T09:44:51.581Z,31.29
2022-07-29T09:48:02.330Z,32.20
2022-07-29T09:51:38.375Z,32.26
2022-07-29T09:55:13.558Z,33.43
2022-07-29T09:58:40.531Z,32.70
2022-07-29T10:01:47.148Z,32.19
2022-07-29T10:04:54.011Z,30.13
2022-07-29T10:08:00.134Z,30.60
2022-07-29T10:11:20.585Z,30.04
2022-07-29T10:14:30.433Z,31.97
2022-07-29T10:17:36.599Z,26.78
2022-07-29T10:20:48.124Z,29.96
2022-07-29T10:23:55.412Z,27.40
2022-07-29T10:27:09.007Z,28.72
2022-07-29T10:30:17.831Z,26.55
2022-07-29T10:34:28.595Z,29.07
2022-07-29T10:37:50.860Z,29.10
2022-07-29T10:41:31.903Z,26.90
2022-07-29T10:44:59.243Z,27.13
2022-07-29T10:48:09.944Z,28.05
2022-07-29T10:51:16.640Z,26.30
2022-07-29T10:54:46.658Z,26.87
2022-07-29T10:58:20.228Z,27.53
2022-07-29T11:01:37.480Z,28.13
2022-07-29T11:05:02.310Z,26.23
2022-07-29T11:08:20.331Z,28.60
2022-07-29T11:11:51.352Z,27.31
2022-07-29T11:15:21.097Z,28.91
2022-07-29T11:18:27.988Z,28.72
2022-07-29T11:21:54.045Z,26.59
2022-07-29T11:25:17.584Z,25.85
2022-07-29T11:28:25.373Z,26.83
2022-07-29T11:31:43.435Z,26.02
2022-07-29T11:34:50.997Z,26.79
2022-07-29T11:38:31.885Z,29.08
2022-07-29T11:41:40.856Z,27.35
2022-07-29T11:45:43.029Z,27.38
2022-07-29T11:48:46.196Z,26.78
2022-07-29T11:51:55.063Z,28.21
2022-07-29T11:55:09.652Z,27.56
2022-07-29T11:58:17.861Z,27.55
2022-07-29T12:01:26.246Z,27.81
2022-07-29T12:04:35.009Z,26.75
2022-07-29T12:07:45.401Z,25.24
2022-07-29T12:10:58.868Z,25.81
2022-07-29T12:14:05.312Z,26.63
2022-07-29T12:17:33.614Z,27.62
2022-07-29T12:20:40.272Z,26.93
2022-07-29T12:24:09.131Z,26.88
2022-07-29T12:27:19.658Z,25.64
2022-07-29T12:30:51.536Z,26.44
2022-07-29T12:33:58.134Z,27.23
2022-07-29T12:37:05.175Z,27.26
2022-07-29T12:40:16.959Z,24.85
2022-07-29T12:43:24.384Z,26.32
2022-07-29T12:46:30.424Z,26.51
2022-07-29T12:49:38.150Z,24.07
2022-07-29T12:52:45.121Z,24.32
2022-07-29T12:55:56.375Z,25.75
2022-07-29T12:59:25.596Z,25.53
2022-07-29T13:02:32.667Z,24.08
2022-07-29T13:05:49.345Z,24.15
2022-07-29T13:09:07.018Z,21.98
2022-07-29T13:12:13.988Z,20.95
2022-07-29T13:15:20.258Z,20.51
2022-07-29T13:18:43.637Z,21.13
2022-07-29T13:21:51.266Z,20.03
2022-07-29T13:25:00.416Z,20.34
2022-07-29T13:28:06.711Z,21.79
2022-07-29T13:31:13.420Z,21.82
2022-07-29T13:34:23.592Z,23.06
2022-07-29T13:37:31.476Z,23.43
2022-07-29T13:40:38.213Z,22.91
2022-07-29T13:43:44.279Z,24.03
2022-07-29T13:46:50.481Z,24.28
2022-07-29T13:49:56.976Z,23.12
2022-07-29T13:53:03.259Z,23.04
2022-07-29T13:56:09.561Z,22.08
2022-07-29T13:59:15.677Z,22.29
2022-07-29T14:02:21.735Z,21.21
2022-07-29T14:05:32.386Z,20.71
2022-07-29T14:08:38.776Z,20.05
2022-07-29T14:11:45.247Z,21.02
2022-07-29T14:14:51.644Z,21.58
2022-07-29T14:17:58.314Z,22.54
2022-07-29T14:21:04.637Z,23.51
2022-07-29T14:24:17.836Z,23.27
2022-07-29T14:27:38.802Z,24.11
2022-07-29T14:30:45.091Z,24.21
2022-07-29T14:33:51.236Z,24.67
2022-07-29T14:36:57.529Z,25.00
2022-07-29T14:40:05.893Z,24.09
2022-07-29T14:43:12.632Z,24.65
2022-07-29T14:46:18.651Z,25.33
2022-07-29T14:49:25.057Z,25.60
2022-07-29T14:52:31.070Z,26.09
2022-07-29T14:55:37.669Z,26.22
2022-07-29T14:58:50.142Z,26.73
2022-07-29T15:02:11.939Z,27.01
2022-07-29T15:05:19.759Z,27.39
2022-07-29T15:08:27.144Z,27.55
2022-07-29T15:11:37.025Z,28.20
2022-07-29T15:15:01.438Z,28.36
2022-07-29T15:18:10.986Z,29.34
2022-07-29T15:21:17.339Z,29.55
2022-07-29T15:24:23.873Z,29.70
2022-07-29T15:27:29.972Z,29.87
2022-07-29T15:30:42.379Z,30.36
2022-07-29T15:33:48.559Z,30.49
2022-07-29T15:36:55.352Z,30.92
2022-07-29T15:40:01.971Z,31.12
2022-07-29T15:43:08.144Z,31.61
2022-07-29T15:46:35.464Z,31.46
2022-07-29T15:49:48.637Z,31.55
2022-07-29T15:53:11.429Z,31.67
2022-07-29T15:56:17.141Z,31.75
2022-07-29T15:59:24.070Z,32.13
2022-07-29T16:02:29.625Z,32.42
2022-07-29T16:05:35.764Z,32.84
2022-07-29T16:08:43.741Z,33.40
2022-07-29T16:11:51.666Z,33.46
2022-07-29T16:14:57.967Z,33.57
2022-07-29T16:18:03.891Z,33.79
2022-07-29T16:21:10.148Z,33.97
2022-07-29T16:24:16.700Z,34.30
2022-07-29T16:27:31.466Z,34.34
2022-07-29T16:30:58.293Z,34.37
2022-07-29T16:34:04.456Z,35.27
2022-07-29T16:37:10.646Z,37.54
2022-07-29T16:40:17.012Z,40.73
2022-07-29T16:43:23.238Z,42.24
2022-07-29T16:46:29.531Z,43.83
2022-07-29T16:49:36.710Z,44.69
2022-07-29T16:52:42.984Z,44.58
2022-07-29T16:55:48.838Z,44.86
2022-07-29T16:58:55.621Z,44.48
2022-07-29T17:02:03.376Z,45.64
2022-07-29T17:05:11.584Z,46.16
2022-07-29T17:08:17.732Z,46.13
2022-07-29T17:11:54.114Z,46.45
2022-07-29T17:14:51.984Z,47.19
2022-07-29T17:17:59.194Z,47.43
2022-07-29T17:21:05.830Z,47.75
2022-07-29T17:24:12.633Z,48.13
2022-07-29T17:27:19.261Z,48.32
2022-07-29T17:30:26.568Z,49.35
2022-07-29T17:33:32.729Z,49.72
2022-07-29T17:36:39.032Z,50.17
2022-07-29T17:39:45.228Z,50.36
2022-07-29T17:42:51.961Z,50.85
2022-07-29T17:45:59.609Z,51.16
2022-07-29T17:49:05.875Z,51.71
2022-07-29T17:52:12.165Z,51.86
2022-07-29T17:55:18.058Z,53.08
2022-07-29T17:58:27.570Z,53.44
2022-07-29T18:01:34.730Z,53.42
2022-07-29T18:04:42.232Z,53.82
2022-07-29T18:07:47.867Z,53.62
2022-07-29T18:10:54.460Z,53.76
2022-07-29T18:14:02.324Z,54.43
2022-07-29T18:17:10.112Z,53.95
2022-07-29T18:20:17.630Z,54.29
2022-07-29T18:23:24.062Z,53.98
2022-07-29T18:26:30.667Z,53.84
2022-07-29T18:29:37.985Z,53.72
2022-07-29T18:32:59.191Z,53.86
2022-07-29T18:36:13.930Z,53.89
2022-07-29T18:39:21.207Z,54.33
2022-07-29T18:42:36.615Z,54.43
2022-07-29T18:45:42.842Z,54.63
2022-07-29T18:48:48.813Z,54.73
2022-07-29T18:51:54.732Z,54.91
2022-07-29T18:55:04.417Z,55.28
2022-07-29T18:58:10.600Z,55.76
2022-07-29T19:01:16.905Z,55.93
2022-07-29T19:04:23.299Z,55.75
2022-07-29T19:07:30.868Z,56.37
2022-07-29T19:10:38.672Z,56.36
2022-07-29T19:13:44.756Z,56.39
2022-07-29T19:16:50.913Z,56.52
2022-07-29T19:19:56.919Z,57.17
2022-07-29T19:23:03.031Z,56.96
2022-07-29T19:26:12.670Z,57.06
2022-07-29T19:29:42.913Z,57.24
2022-07-29T19:32:50.288Z,57.47
2022-07-29T19:35:57.817Z,57.82
2022-07-29T19:39:04.205Z,58.01
2022-07-29T19:42:15.230Z,58.29
2022-07-29T19:45:23.161Z,58.28
2022-07-29T19:48:29.238Z,58.97
2022-07-29T19:51:35.537Z,58.71
2022-07-29T19:54:41.560Z,58.99
2022-07-29T19:57:48.929Z,59.10
2022-07-29T20:00:54.742Z,59.10
2022-07-29T20:04:00.758Z,59.17
2022-07-29T20:07:07.650Z,59.12
2022-07-29T20:10:13.818Z,59.44
2022-07-29T20:13:24.016Z,59.52
2022-07-29T20:16:31.434Z,60.27
2022-07-29T20:19:38.567Z,59.93
2022-07-29T20:22:45.142Z,60.09
2022-07-29T20:25:51.030Z,60.50
2022-07-29T20:28:57.117Z,60.61
2022-07-29T20:32:04.056Z,60.72
2022-07-29T20:35:10.686Z,60.73
2022-07-29T20:38:18.498Z,60.72
2022-07-29T20:41:24.490Z,60.79
2022-07-29T20:44:30.402Z,61.46
2022-07-29T20:47:36.321Z,61.54
2022-07-29T20:50:48.232Z,62.17
2022-07-29T20:53:54.227Z,62.22
2022-07-29T20:57:00.776Z,62.12
2022-07-29T21:00:07.869Z,62.48
2022-07-29T21:03:14.670Z,62.49
2022-07-29T21:06:20.460Z,62.48
2022-07-29T21:09:26.111Z,62.42
2022-07-29T21:12:31.884Z,62.72
2022-07-29T21:15:37.968Z,62.80
2022-07-29T21:18:46.763Z,63.13
2022-07-29T21:21:53.173Z,63.14
2022-07-29T21:24:59.013Z,63.20
2022-07-29T21:28:24.334Z,63.47
2022-07-29T21:31:30.669Z,63.16
2022-07-29T21:34:36.472Z,63.52
2022-07-29T21:37:42.153Z,63.47
2022-07-29T21:40:50.338Z,63.40
2022-07-29T21:43:58.411Z,63.38
2022-07-29T21:47:07.409Z,63.79
2022-07-29T21:50:13.362Z,63.93
2022-07-29T21:53:22.853Z,63.86
2022-07-29T21:56:31.423Z,64.21
2022-07-29T21:59:37.542Z,64.39
2022-07-29T22:02:44.213Z,64.78
2022-07-29T22:05:50.591Z,65.72
2022-07-29T22:08:59.449Z,66.20
2022-07-29T22:12:06.017Z,66.33
2022-07-29T22:15:12.157Z,66.72
2022-07-29T22:18:20.661Z,67.05
2022-07-29T22:21:27.033Z,67.18
2022-07-29T22:24:32.907Z,67.31
2022-07-29T22:27:39.547Z,67.52
2022-07-29T22:30:45.569Z,67.56
2022-07-29T22:33:52.057Z,67.27
2022-07-29T22:36:59.152Z,67.31
2022-07-29T22:40:06.513Z,67.40
2022-07-29T22:43:14.434Z,67.50
2022-07-29T22:46:20.274Z,68.09
2022-07-29T22:49:26.076Z,68.09
2022-07-29T22:52:32.547Z,68.29
2022-07-29T22:55:38.588Z,68.30
2022-07-29T22:58:44.610Z,68.40
2022-07-29T23:01:50.548Z,68.38
2022-07-29T23:04:56.377Z,68.47
2022-07-29T23:08:02.706Z,68.69
2022-07-29T23:11:08.640Z,68.90
2022-07-29T23:14:14.793Z,68.93
2022-07-29T23:17:20.546Z,69.65
2022-07-29T23:20:26.978Z,69.43
2022-07-29T23:23:32.613Z,69.54
2022-07-29T23:26:38.602Z,69.99
2022-07-29T23:29:44.563Z,69.55
2022-07-29T23:32:50.428Z,69.78
2022-07-29T23:35:56.184Z,69.94
2022-07-29T23:39:02.359Z,69.47
2022-07-29T23:42:08.074Z,69.74
2022-07-29T23:45:14.914Z,69.49
2022-07-29T23:48:21.431Z,69.98
2022-07-29T23:51:29.618Z,70.84
2022-07-29T23:54:35.438Z,70.85
2022-07-29T23:57:41.353Z,70.67
